Time;durP1;ratioP1;P1;durP2;ratioP2;P2;SDS_P1;SDS_P2;PMS_P1;PMS_P2;Temp;Humidity;BMP_temperature;BMP_pressure;BME280_temperature;BME280_humidity;BME280_pressure;Samples;Min_cycle;Max_cycle;Signal;HPM_P1;HPM_P2
2021/12/11 00:01:24;;;;;;;0.10;0.10;;;;;;;7.11;74.54;100598.41;7364316;19;20064;-59
2021/12/11 00:04:00;;;;;;;0.10;0.10;;;;;;;7.12;74.45;100602.72;7368521;19;20025;-59
2021/12/11 00:06:35;;;;;;;0.10;0.10;;;;;;;7.13;74.26;100601.84;7369045;19;20630;-59
2021/12/11 00:09:11;;;;;;;0.10;0.10;;;;;;;7.14;74.34;100598.38;7360336;19;20015;-59
2021/12/11 00:11:41;;;;;;;0.10;0.10;;;;;;;7.15;74.58;100602.72;7364563;19;20507;-59
2021/12/11 00:14:09;;;;;;;0.00;0.00;;;;;;;7.15;74.39;100600.97;7359947;19;20034;-59
2021/12/11 00:16:37;;;;;;;0.00;0.00;;;;;;;7.16;74.05;100609.63;7364988;19;20464;-59
2021/12/11 00:19:27;;;;;;;0.00;0.00;;;;;;;7.20;74.33;100598.31;7365776;19;20006;-60
2021/12/11 00:22:01;;;;;;;0.10;0.10;;;;;;;7.18;73.93;100605.25;7265662;19;2004424;-59
2021/12/11 00:24:30;;;;;;;0.10;0.10;;;;;;;7.20;74.02;100603.53;7364239;19;20749;-59
2021/12/11 00:27:09;;;;;;;0.00;0.00;;;;;;;7.23;74.24;100599.13;7368380;19;20018;-60
2021/12/11 00:29:36;;;;;;;0.03;0.03;;;;;;;7.23;74.03;100604.31;7367199;19;20085;-59
2021/12/11 00:32:25;;;;;;;0.00;0.00;;;;;;;7.25;74.17;100600.00;7362600;19;20030;-59
2021/12/11 00:34:56;;;;;;;0.10;0.10;;;;;;;7.26;74.31;100606.03;7366431;19;20011;-60
2021/12/11 00:37:24;;;;;;;0.10;0.10;;;;;;;7.27;74.07;100599.97;7362846;19;20037;-60
2021/12/11 00:40:04;;;;;;;0.00;0.00;;;;;;;7.29;74.04;100603.41;7364759;19;20010;-59
2021/12/11 00:42:34;;;;;;;0.00;0.00;;;;;;;7.27;74.56;100605.16;7367517;19;20867;-60
2021/12/11 00:45:22;;;;;;;0.00;0.00;;;;;;;7.33;74.46;100599.91;7366955;19;20010;-59
2021/12/11 00:47:52;;;;;;;0.10;0.10;;;;;;;7.32;74.35;100590.38;7357772;19;20006;-59
2021/12/11 00:50:22;;;;;;;0.10;0.10;;;;;;;7.32;74.18;100593.00;7363039;19;20485;-59
2021/12/11 00:52:57;;;;;;;0.00;0.00;;;;;;;7.36;74.13;100589.47;7364586;19;20541;-58
2021/12/11 00:55:36;;;;;;;0.05;0.05;;;;;;;7.37;74.35;100592.94;7367906;19;20006;-59
2021/12/11 00:58:06;;;;;;;0.00;0.00;;;;;;;7.36;74.52;100604.22;7364482;19;20078;-59
2021/12/11 01:00:48;;;;;;;0.10;0.10;;;;;;;7.39;74.35;100605.00;7368405;19;20011;-59
2021/12/11 01:03:16;;;;;;;0.10;0.10;;;;;;;7.38;74.02;100597.25;7362272;19;20006;-59
2021/12/11 01:05:45;;;;;;;0.10;0.10;;;;;;;7.32;74.12;100598.19;7364729;19;20015;-59
2021/12/11 01:08:19;;;;;;;0.10;0.10;;;;;;;7.39;73.76;100605.00;7364479;19;20129;-60
2021/12/11 01:10:47;;;;;;;0.10;0.10;;;;;;;7.34;74.09;100586.03;7367167;19;20015;-59
2021/12/11 01:13:17;;;;;;;;;;;;;;;7.43;74.46;100604.09;7368706;19;20017;-59
2021/12/11 01:15:58;;;;;;;0.00;0.00;;;;;;;7.42;74.14;100597.19;7366563;19;19947;-59
2021/12/11 01:18:39;;;;;;;0.10;0.10;;;;;;;7.41;74.26;100598.09;7363142;19;20412;-60
2021/12/11 01:21:25;;;;;;;0.10;0.10;;;;;;;7.40;74.01;100598.97;7360852;19;20022;-59
2021/12/11 01:26:32;;;;;;;0.05;0.05;;;;;;;7.24;74.08;100577.47;7359506;19;20022;-59
2021/12/11 01:28:58;;;;;;;0.00;0.00;;;;;;;7.37;73.87;100590.34;7362132;19;20834;-59
2021/12/11 01:31:24;;;;;;;0.10;0.10;;;;;;;7.41;74.38;100592.03;7367521;19;20015;-59
2021/12/11 01:33:53;;;;;;;0.00;0.00;;;;;;;7.43;73.75;100587.66;7362745;19;20011;-58
2021/12/11 01:36:18;;;;;;;0.00;0.00;;;;;;;7.44;74.33;100599.78;7366001;19;20006;-58
2021/12/11 01:38:44;;;;;;;0.10;0.10;;;;;;;7.33;73.96;100578.25;7361273;19;20013;-59
2021/12/11 01:41:16;;;;;;;0.00;0.00;;;;;;;7.47;74.09;100597.16;7364840;19;20006;-59
2021/12/11 01:43:43;;;;;;;0.05;0.05;;;;;;;7.47;74.28;100597.16;7359415;19;20085;-60
2021/12/11 01:46:10;;;;;;;0.10;0.10;;;;;;;7.48;73.80;100604.06;7364059;19;20043;-60
2021/12/11 01:48:41;;;;;;;0.10;0.10;;;;;;;7.51;74.33;100612.69;7365512;19;20018;-60
2021/12/11 01:51:34;;;;;;;0.00;0.00;;;;;;;7.56;74.41;100601.38;7365291;19;20014;-60
2021/12/11 01:54:12;;;;;;;0.00;0.00;;;;;;;7.53;73.82;100591.88;7261331;19;2004389;-60
2021/12/11 01:56:41;;;;;;;0.10;0.10;;;;;;;7.55;73.87;100597.91;7354625;19;20758;-59
2021/12/11 01:59:13;;;;;;;0.10;0.10;;;;;;;7.59;74.11;100601.34;7363364;19;20873;-60
2021/12/11 02:01:47;;;;;;;0.10;0.10;;;;;;;7.60;74.25;100597.84;7358259;19;20015;-60
2021/12/11 02:04:16;;;;;;;0.10;0.10;;;;;;;7.57;73.88;100575.38;7364306;19;20090;-60
2021/12/11 02:06:45;;;;;;;0.10;0.10;;;;;;;7.64;73.98;100591.75;7358386;19;20014;-59
2021/12/11 02:09:36;;;;;;;0.00;0.00;;;;;;;7.66;74.10;100598.66;7364939;19;20033;-60
2021/12/11 02:12:10;;;;;;;0.00;0.00;;;;;;;7.68;74.39;100604.69;7361352;19;20603;-59
2021/12/11 02:14:42;;;;;;;0.00;0.00;;;;;;;7.69;74.25;100603.78;7362332;19;20380;-59
2021/12/11 02:17:20;;;;;;;0.10;0.10;;;;;;;7.72;74.44;100602.91;7359405;19;20027;-60
2021/12/11 02:19:47;;;;;;;0.00;0.00;;;;;;;7.73;74.11;100594.22;7365790;19;20362;-59
2021/12/11 02:22:24;;;;;;;0.05;0.05;;;;;;;7.76;74.47;100600.25;7364016;19;20087;-59
2021/12/11 02:24:56;;;;;;;0.10;0.10;;;;;;;7.79;73.95;100609.75;7364729;19;20026;-59
2021/12/11 02:27:27;;;;;;;0.10;0.10;;;;;;;7.82;74.18;100606.25;7357283;19;20014;-59
2021/12/11 02:30:18;;;;;;;0.00;0.00;;;;;;;7.86;74.19;100603.59;7364139;19;20018;-58
2021/12/11 02:33:07;;;;;;;0.00;0.00;;;;;;;7.86;74.18;100603.59;7261795;19;2004567;-59
2021/12/11 02:35:38;;;;;;;0.00;0.00;;;;;;;7.89;73.77;100608.75;7362525;19;20598;-58
2021/12/11 02:38:12;;;;;;;0.10;0.10;;;;;;;7.89;73.89;100598.34;7364625;19;20039;-60
2021/12/11 02:40:51;;;;;;;0.00;0.00;;;;;;;7.92;74.07;100607.84;7359940;19;20018;-59
2021/12/11 02:43:28;;;;;;;0.03;0.03;;;;;;;7.89;73.53;100606.13;7360296;19;20035;-59
2021/12/11 02:46:15;;;;;;;0.00;0.00;;;;;;;7.94;73.92;100593.09;7359478;19;20035;-59
2021/12/11 02:48:46;;;;;;;0.10;0.10;;;;;;;7.95;73.94;100595.66;7359821;19;20014;-59
2021/12/11 02:51:24;;;;;;;0.10;0.10;;;;;;;7.95;73.97;100587.84;7363588;19;20472;-59
2021/12/11 02:53:57;;;;;;;0.10;0.10;;;;;;;7.97;73.81;100583.50;7356665;19;20019;-59
2021/12/11 02:56:33;;;;;;;0.08;0.08;;;;;;;7.99;73.65;100581.72;7363638;19;20018;-59
2021/12/11 02:59:06;;;;;;;0.00;0.00;;;;;;;7.93;73.95;100563.63;7349710;19;20002;-59
2021/12/11 03:01:42;;;;;;;0.10;0.10;;;;;;;8.01;73.71;100573.94;7362002;19;20007;-58
2021/12/11 03:04:18;;;;;;;0.00;0.00;;;;;;;8.02;73.67;100581.72;7361136;19;20011;-60
2021/12/11 03:06:48;;;;;;;0.08;0.08;;;;;;;8.02;73.46;100580.84;7358015;19;20007;-59
2021/12/11 03:09:18;;;;;;;0.10;0.10;;;;;;;7.97;74.00;100567.91;7357986;19;20378;-58
2021/12/11 03:11:44;;;;;;;0.00;0.00;;;;;;;7.90;73.85;100545.47;7351551;19;20011;-59
2021/12/11 03:14:14;;;;;;;0.00;0.00;;;;;;;8.07;74.04;100561.69;7368086;19;20007;-59
2021/12/11 03:16:43;;;;;;;0.10;0.10;;;;;;;8.09;73.63;100551.25;7363442;19;20003;-59
2021/12/11 03:19:11;;;;;;;0.00;0.00;;;;;;;8.11;73.58;100553.81;7367701;19;20034;-59
2021/12/11 03:21:37;;;;;;;0.10;0.10;;;;;;;8.09;73.88;100550.41;7362601;19;20010;-60
2021/12/11 03:24:04;;;;;;;0.10;0.10;;;;;;;8.09;73.50;100560.81;7356725;19;20452;-59
2021/12/11 03:26:29;;;;;;;0.00;0.00;;;;;;;8.09;73.76;100555.59;7370978;19;20030;-59
2021/12/11 03:28:55;;;;;;;0.00;0.00;;;;;;;8.12;73.84;100551.22;7365363;19;20026;-59
2021/12/11 03:31:21;;;;;;;0.00;0.00;;;;;;;8.13;74.04;100552.09;7369182;19;20763;-59
2021/12/11 03:33:51;;;;;;;0.00;0.00;;;;;;;8.15;74.00;100555.50;7366855;19;20014;-59
2021/12/11 03:36:19;;;;;;;0.00;0.00;;;;;;;8.16;73.79;100546.81;7367294;19;20010;-59
2021/12/11 03:38:50;;;;;;;0.00;0.00;;;;;;;8.17;73.67;100543.34;7361287;19;20026;-59
2021/12/11 03:41:16;;;;;;;0.00;0.00;;;;;;;8.16;74.13;100532.09;7363601;19;20034;-59
2021/12/11 03:43:41;;;;;;;0.00;0.00;;;;;;;8.17;74.08;100530.34;7362001;19;20018;-59
2021/12/11 03:46:09;;;;;;;0.00;0.00;;;;;;;8.19;73.88;100536.38;7362071;19;20035;-59
2021/12/11 03:48:47;;;;;;;0.00;0.00;;;;;;;8.20;74.14;100531.13;7367697;19;20019;-59
2021/12/11 03:51:16;;;;;;;0.00;0.00;;;;;;;8.16;74.20;100515.59;7367116;19;20108;-60
2021/12/11 03:53:41;;;;;;;0.10;0.10;;;;;;;8.18;73.79;100525.13;7363445;19;20003;-59
2021/12/11 03:56:11;;;;;;;0.10;0.10;;;;;;;8.16;73.78;100520.81;7366965;19;20071;-59
2021/12/11 03:58:37;;;;;;;0.00;0.00;;;;;;;8.19;73.85;100526.81;7365952;19;20092;-60
2021/12/11 04:01:13;;;;;;;0.00;0.00;;;;;;;8.21;74.32;100519.00;7366244;19;20035;-59
2021/12/11 04:03:41;;;;;;;0.10;0.10;;;;;;;8.19;73.81;100520.78;7368268;19;20041;-59
2021/12/11 04:06:09;;;;;;;0.00;0.00;;;;;;;8.21;74.04;100517.28;7355244;19;20019;-59
2021/12/11 04:08:40;;;;;;;;;;;;;;;8.25;74.91;100513.72;7362024;19;20014;-59
2021/12/11 04:11:12;;;;;;;0.08;0.08;;;;;;;8.25;73.94;100515.47;7363670;19;19930;-58
2021/12/11 04:13:38;;;;;;;0.10;0.10;;;;;;;8.18;74.20;100503.44;7348995;19;20018;-60
2021/12/11 04:16:05;;;;;;;0.00;0.00;;;;;;;8.22;73.81;100505.13;7370611;19;20011;-59
2021/12/11 04:18:31;;;;;;;0.10;0.10;;;;;;;8.26;74.16;100506.78;7351869;19;20011;-60
2021/12/11 04:20:56;;;;;;;0.00;0.00;;;;;;;8.27;74.34;100503.31;7366794;19;20623;-59
2021/12/11 04:23:22;;;;;;;0.10;0.10;;;;;;;8.29;74.41;100496.31;7358660;19;20017;-59
2021/12/11 04:25:51;;;;;;;0.10;0.10;;;;;;;8.19;74.64;100479.16;7365842;19;20007;-59
2021/12/11 04:28:19;;;;;;;0.03;0.03;;;;;;;8.31;74.16;100495.44;7365226;19;20011;-59
2021/12/11 04:30:50;;;;;;;0.00;0.00;;;;;;;8.35;73.90;100488.41;7363829;19;20022;-59
2021/12/11 04:33:16;;;;;;;0.10;0.10;;;;;;;8.36;74.03;100479.75;7366316;19;20038;-59
2021/12/11 04:35:43;;;;;;;0.00;0.00;;;;;;;8.39;73.94;100477.09;7367247;19;20078;-59
2021/12/11 04:38:13;;;;;;;0.00;0.00;;;;;;;8.43;74.05;100480.53;7362849;19;20420;-59
2021/12/11 04:40:44;;;;;;;0.00;0.00;;;;;;;8.44;73.87;100483.09;7364606;19;20002;-59
2021/12/11 04:43:15;;;;;;;0.10;0.10;;;;;;;8.43;74.01;100486.59;7369241;19;20014;-58
2021/12/11 04:46:01;;;;;;;0.00;0.00;;;;;;;8.49;74.31;100483.88;7367237;19;20014;-59
2021/12/11 04:51:26;;;;;;;0.00;0.00;;;;;;;8.53;74.17;100480.31;7369305;19;20002;-59
2021/12/11 05:08:13;;;;;;;0.00;0.00;;;;;;;8.67;73.96;100447.97;7264834;19;2004551;-59
2021/12/11 05:10:16;;;;;;;0.10;0.10;;;;;;;8.71;73.88;100447.03;7261914;19;2004391;-59
2021/12/11 05:12:44;;;;;;;0.00;0.00;;;;;;;8.72;73.45;100452.22;7265123;19;2004637;-59
2021/12/11 05:15:15;;;;;;;0.00;0.00;;;;;;;8.76;74.08;100463.41;7365249;19;20022;-59
2021/12/11 05:17:41;;;;;;;0.10;0.10;;;;;;;8.75;73.72;100464.31;7368041;19;20090;-59
2021/12/11 05:20:09;;;;;;;0.00;0.00;;;;;;;8.76;73.71;100460.81;7369931;19;20082;-59
2021/12/11 05:22:34;;;;;;;0.00;0.00;;;;;;;8.66;73.80;100454.06;7365679;19;20003;-59
2021/12/11 05:25:00;;;;;;;0.00;0.00;;;;;;;8.80;73.70;100480.69;7367879;19;20496;-59
2021/12/11 05:27:26;;;;;;;0.03;0.03;;;;;;;8.79;73.28;100472.03;7364993;19;20074;-59
2021/12/11 05:29:51;;;;;;;0.00;0.00;;;;;;;8.79;73.25;100468.56;7368680;19;20002;-59
2021/12/11 05:32:20;;;;;;;0.00;0.00;;;;;;;8.78;73.18;100454.72;7368799;19;20078;-59
2021/12/11 05:34:46;;;;;;;0.00;0.00;;;;;;;8.88;73.57;100463.19;7365114;19;20006;-59
2021/12/11 05:37:12;;;;;;;0.10;0.10;;;;;;;8.77;73.35;100452.13;7368621;19;20014;-59
2021/12/11 05:39:38;;;;;;;0.10;0.10;;;;;;;8.92;73.49;100467.47;7361807;19;20018;-59
2021/12/11 05:42:05;;;;;;;0.00;0.00;;;;;;;8.94;72.98;100468.28;7365890;19;20014;-60
2021/12/11 05:44:30;;;;;;;0.10;0.10;;;;;;;8.84;73.20;100443.31;7367225;19;20006;-58
2021/12/11 05:46:55;;;;;;;0.03;0.03;;;;;;;8.96;73.27;100463.88;7366553;19;25474;-59
2021/12/11 05:49:22;;;;;;;0.10;0.10;;;;;;;8.98;72.98;100461.28;7367872;19;20022;-59
2021/12/11 05:51:50;;;;;;;0.00;0.00;;;;;;;9.00;73.14;100460.34;7368288;19;20033;-59
2021/12/11 05:54:22;;;;;;;0.10;0.10;;;;;;;9.01;73.04;100449.03;7365314;19;20006;-59
2021/12/11 05:56:54;;;;;;;0.00;0.00;;;;;;;9.01;73.39;100441.22;7362643;19;20024;-59
2021/12/11 05:59:20;;;;;;;0.00;0.00;;;;;;;9.02;73.39;100440.34;7364991;19;20603;-59
2021/12/11 06:01:54;;;;;;;0.00;0.00;;;;;;;9.06;73.79;100439.38;7365190;19;20031;-59
2021/12/11 06:04:26;;;;;;;0.00;0.00;;;;;;;9.08;73.45;100431.53;7368015;19;20411;-59
2021/12/11 06:06:53;;;;;;;0.05;0.05;;;;;;;9.06;73.24;100428.94;7361734;19;20022;-59
2021/12/11 06:09:21;;;;;;;0.00;0.00;;;;;;;9.07;73.20;100425.47;7366796;19;20022;-59
2021/12/11 06:11:50;;;;;;;0.00;0.00;;;;;;;9.09;73.78;100412.41;7365234;19;20015;-59
2021/12/11 06:14:17;;;;;;;0.03;0.03;;;;;;;9.09;73.45;100412.41;7366778;19;20067;-59
2021/12/11 06:16:48;;;;;;;0.00;0.00;;;;;;;8.99;73.43;100385.72;7362940;19;20014;-58
2021/12/11 06:19:14;;;;;;;0.00;0.00;;;;;;;9.09;73.46;100402.00;7360433;19;20035;-58
2021/12/11 06:21:39;;;;;;;0.00;0.00;;;;;;;9.02;74.08;100388.25;7367870;19;20017;-59
2021/12/11 06:24:06;;;;;;;0.10;0.10;;;;;;;9.09;74.19;100397.66;7360975;19;20010;-59
2021/12/11 06:26:32;;;;;;;0.00;0.00;;;;;;;9.13;73.68;100398.44;7365682;19;20029;-59
2021/12/11 06:28:58;;;;;;;0.00;0.00;;;;;;;9.13;73.76;100400.19;7365971;19;20129;-59
2021/12/11 06:31:23;;;;;;;0.00;0.00;;;;;;;9.15;74.33;100406.22;7366081;19;20490;-60
2021/12/11 06:33:53;;;;;;;0.00;0.00;;;;;;;9.17;74.30;100407.03;7364675;19;20014;-59
2021/12/11 06:36:20;;;;;;;0.10;0.10;;;;;;;9.18;74.07;100411.38;7365349;19;20011;-59
2021/12/11 06:38:47;;;;;;;;;;;;;;;9.24;74.62;100421.66;7365054;19;20015;-59
2021/12/11 06:41:16;;;;;;;0.00;0.00;;;;;;;9.21;74.48;100417.34;7358515;19;19922;-59
2021/12/11 06:43:42;;;;;;;0.03;0.03;;;;;;;9.20;74.57;100425.22;7361875;19;20559;-59
2021/12/11 06:46:08;;;;;;;0.00;0.00;;;;;;;9.13;74.80;100408.00;7364885;19;20010;-59
2021/12/11 06:48:34;;;;;;;0.00;0.00;;;;;;;9.18;74.86;100416.59;7368376;19;20019;-59
2021/12/11 06:51:01;;;;;;;0.00;0.00;;;;;;;9.18;75.38;100416.59;7372625;19;20081;-59
2021/12/11 06:53:33;;;;;;;0.10;0.10;;;;;;;9.16;75.50;100408.78;7369755;19;20085;-59
2021/12/11 06:55:59;;;;;;;0.00;0.00;;;;;;;9.08;75.78;100408.97;7368222;19;20023;-58
2021/12/11 06:58:26;;;;;;;0.00;0.00;;;;;;;9.07;75.77;100409.84;7368668;19;20006;-59
2021/12/11 07:00:53;;;;;;;0.00;0.00;;;;;;;9.06;75.75;100408.13;7366662;19;20071;-59
2021/12/11 07:03:18;;;;;;;0.00;0.00;;;;;;;9.02;76.20;100409.09;7365276;19;20479;-59
2021/12/11 07:05:44;;;;;;;0.00;0.00;;;;;;;8.99;76.14;100409.16;7369373;19;20010;-59
2021/12/11 07:08:12;;;;;;;0.08;0.08;;;;;;;8.99;75.93;100410.91;7365617;19;20006;-59
2021/12/11 07:10:39;;;;;;;0.00;0.00;;;;;;;8.95;76.17;100410.09;7370735;19;20010;-59
2021/12/11 07:13:05;;;;;;;0.10;0.10;;;;;;;8.79;76.35;100388.72;7365667;19;20030;-59
2021/12/11 07:15:30;;;;;;;0.00;0.00;;;;;;;8.91;76.42;100408.44;7369370;19;20551;-59
2021/12/11 07:17:56;;;;;;;0.10;0.10;;;;;;;8.87;76.51;100396.41;7367263;19;20018;-59
2021/12/11 07:20:22;;;;;;;0.08;0.08;;;;;;;8.87;76.68;100393.78;7365874;19;20031;-59
2021/12/11 07:22:48;;;;;;;0.00;0.00;;;;;;;8.82;76.20;100393.03;7365599;19;20006;-59
2021/12/11 07:25:45;;;;;;;0.10;0.10;;;;;;;8.81;76.18;100397.34;7366092;19;20018;-59
2021/12/11 07:28:11;;;;;;;;;;;;;;;8.83;75.70;100395.59;7267767;19;2004386;-59
2021/12/11 07:30:40;;;;;;;0.10;0.10;;;;;;;8.80;76.67;100394.78;7357164;19;19990;-59
2021/12/11 07:33:07;;;;;;;0.00;0.00;;;;;;;8.77;76.99;100384.44;7367904;19;20027;-58
2021/12/11 07:35:37;;;;;;;0.10;0.10;;;;;;;8.76;76.83;100385.31;7367338;19;20010;-59
2021/12/11 07:38:03;;;;;;;0.10;0.10;;;;;;;8.73;76.95;100382.78;7363422;19;20062;-59
2021/12/11 07:40:35;;;;;;;0.00;0.00;;;;;;;8.74;76.87;100379.28;7367130;19;20010;-59
2021/12/11 07:43:01;;;;;;;0.00;0.00;;;;;;;8.71;77.23;100374.13;7362195;19;20018;-59
2021/12/11 07:45:28;;;;;;;0.00;0.00;;;;;;;8.72;77.17;100360.25;7366765;19;20050;-59
2021/12/11 07:47:54;;;;;;;0.00;0.00;;;;;;;8.72;77.35;100360.25;7365404;19;20022;-59
2021/12/11 07:50:21;;;;;;;0.05;0.05;;;;;;;8.66;77.46;100352.53;7366925;19;20091;-58
2021/12/11 07:52:46;;;;;;;0.00;0.00;;;;;;;8.76;77.45;100361.88;7368618;19;20107;-59
2021/12/11 07:55:15;;;;;;;0.00;0.00;;;;;;;8.76;77.50;100364.47;7365240;19;20018;-59
2021/12/11 07:57:40;;;;;;;0.00;0.00;;;;;;;8.77;77.90;100369.69;7365477;19;20513;-59
2021/12/11 08:00:10;;;;;;;0.00;0.00;;;;;;;8.82;77.69;100377.41;7365071;19;20410;-59
2021/12/11 08:02:36;;;;;;;0.00;0.00;;;;;;;8.81;77.70;100392.13;7363149;19;20433;-59
2021/12/11 08:05:03;;;;;;;0.10;0.10;;;;;;;8.74;77.82;100368.88;7361199;19;20015;-58
2021/12/11 08:07:28;;;;;;;0.00;0.00;;;;;;;8.87;77.37;100378.16;7365097;19;20027;-59
2021/12/11 08:09:54;;;;;;;0.00;0.00;;;;;;;8.90;77.38;100375.47;7364006;19;20014;-59
2021/12/11 08:12:19;;;;;;;0.10;0.10;;;;;;;8.95;77.68;100372.78;7362068;19;20494;-59
2021/12/11 08:14:45;;;;;;;0.10;0.10;;;;;;;8.85;77.76;100351.28;7368172;19;20370;-59
2021/12/11 08:17:11;;;;;;;0.00;0.00;;;;;;;9.00;78.09;100371.78;7357691;19;20011;-59
2021/12/11 08:19:36;;;;;;;0.00;0.00;;;;;;;9.01;78.07;100367.44;7366459;19;20047;-60
2021/12/11 08:22:05;;;;;;;0.05;0.05;;;;;;;9.04;77.85;100376.03;7365622;19;20026;-59
2021/12/11 08:24:31;;;;;;;0.08;0.08;;;;;;;9.06;78.00;100370.78;7367092;19;20107;-59
2021/12/11 08:27:00;;;;;;;0.00;0.00;;;;;;;9.08;77.77;100369.88;7363571;19;20030;-59
2021/12/11 08:29:27;;;;;;;0.10;0.10;;;;;;;9.11;77.76;100368.94;7364247;19;20022;-58
2021/12/11 08:31:55;;;;;;;0.10;0.10;;;;;;;9.12;77.27;100359.38;7361877;19;20011;-58
2021/12/11 08:34:22;;;;;;;0.03;0.03;;;;;;;9.15;77.38;100356.72;7363582;19;20034;-58
2021/12/11 08:36:48;;;;;;;0.00;0.00;;;;;;;9.18;77.64;100354.06;7363821;19;20026;-58
2021/12/11 08:39:17;;;;;;;0.10;0.10;;;;;;;9.21;77.26;100356.56;7366082;19;20014;-59
2021/12/11 08:41:45;;;;;;;0.00;0.00;;;;;;;9.23;77.64;100352.22;7360305;19;20239;-59
2021/12/11 08:44:13;;;;;;;0.00;0.00;;;;;;;9.24;77.31;100353.91;7363633;19;20034;-58
2021/12/11 08:46:43;;;;;;;0.00;0.00;;;;;;;9.28;77.67;100356.41;7361676;19;20026;-60
2021/12/11 08:49:18;;;;;;;0.00;0.00;;;;;;;9.32;77.14;100357.19;7366099;19;20025;-60
2021/12/11 08:51:57;;;;;;;0.10;0.10;;;;;;;9.36;77.13;100343.19;7361531;19;20351;-59
2021/12/11 08:54:25;;;;;;;0.00;0.00;;;;;;;9.36;77.53;100344.03;7364170;19;20278;-59
2021/12/11 08:56:51;;;;;;;0.00;0.00;;;;;;;9.38;77.94;100346.63;7364808;19;20006;-59
2021/12/11 08:59:21;;;;;;;0.00;0.00;;;;;;;9.43;77.67;100344.78;7363224;19;20022;-59
2021/12/11 09:01:59;;;;;;;0.10;0.10;;;;;;;9.47;77.69;100338.56;7363963;19;20025;-59
2021/12/11 09:04:43;;;;;;;0.10;0.10;;;;;;;9.52;77.77;100334.09;7364795;19;20018;-59
2021/12/11 09:07:27;;;;;;;0.00;0.00;;;;;;;9.57;78.10;100344.44;7364831;19;20100;-59
2021/12/11 09:10:17;;;;;;;0.00;0.00;;;;;;;9.59;77.99;100335.69;7363481;19;20007;-59
2021/12/11 09:12:48;;;;;;;0.10;0.10;;;;;;;9.62;77.70;100348.63;7355172;19;20846;-59
2021/12/11 09:15:31;;;;;;;0.00;0.00;;;;;;;9.68;77.89;100349.38;7364328;19;20017;-59
2021/12/11 09:18:16;;;;;;;0.10;0.10;;;;;;;9.72;77.50;100346.66;7352804;19;20365;-59
2021/12/11 09:20:49;;;;;;;0.10;0.10;;;;;;;9.73;77.64;100348.41;7356933;19;20034;-59
2021/12/11 09:23:27;;;;;;;0.00;0.00;;;;;;;9.75;77.36;100340.53;7363316;19;20031;-59
2021/12/11 09:25:53;;;;;;;;;;;;;;;9.84;77.18;100346.38;7358383;19;20048;-59
2021/12/11 09:28:27;;;;;;;0.03;0.03;;;;;;;9.84;77.17;100337.69;7366384;19;19914;-59
2021/12/11 09:31:09;;;;;;;0.10;0.10;;;;;;;9.85;76.99;100331.56;7360406;19;20015;-59
2021/12/11 09:33:41;;;;;;;0.00;0.00;;;;;;;9.86;77.01;100333.28;7360928;19;20014;-59
2021/12/11 09:36:15;;;;;;;0.00;0.00;;;;;;;9.86;77.01;100335.88;7362104;19;20086;-59
2021/12/11 09:38:45;;;;;;;0.00;0.00;;;;;;;9.87;77.06;100335.00;7360207;19;20010;-59
2021/12/11 09:41:24;;;;;;;0.10;0.10;;;;;;;9.91;77.13;100333.16;7352115;19;20021;-58
2021/12/11 09:44:08;;;;;;;0.00;0.00;;;;;;;9.91;77.43;100326.19;7362509;19;20497;-60
2021/12/11 09:46:40;;;;;;;0.00;0.00;;;;;;;9.93;77.14;100329.59;7364012;19;20021;-60
2021/12/11 09:49:12;;;;;;;0.00;0.00;;;;;;;9.93;77.24;100329.59;7361385;19;21163;-59
2021/12/11 09:51:43;;;;;;;0.00;0.00;;;;;;;9.96;77.11;100334.75;7366430;19;20015;-59
2021/12/11 09:54:17;;;;;;;0.00;0.00;;;;;;;10.03;77.24;100331.06;7355738;19;20018;-59
2021/12/11 09:56:57;;;;;;;0.00;0.00;;;;;;;10.06;76.93;100331.00;7365505;19;20043;-59
2021/12/11 09:59:24;;;;;;;0.00;0.00;;;;;;;10.09;76.96;100330.94;7356137;19;20011;-60
2021/12/11 10:01:57;;;;;;;0.10;0.10;;;;;;;10.19;77.48;100325.44;7362224;19;20048;-59
2021/12/11 10:04:32;;;;;;;0.00;0.00;;;;;;;10.23;77.45;100320.09;7350970;19;20010;-59
2021/12/11 10:09:39;;;;;;;0.00;0.00;;;;;;;10.36;77.70;100318.06;7353381;19;20462;-59
2021/12/11 10:12:27;;;;;;;0.00;0.00;;;;;;;10.45;77.83;100319.56;7352392;19;20027;-59
2021/12/11 10:15:21;;;;;;;0.00;0.00;;;;;;;10.51;77.31;100317.63;7363414;19;20011;-59
2021/12/11 10:18:01;;;;;;;0.03;0.03;;;;;;;10.59;77.55;100309.56;7254713;19;2004299;-59
2021/12/11 10:20:32;;;;;;;0.05;0.05;;;;;;;10.67;77.55;100317.19;7358797;19;20035;-59
2021/12/11 10:23:01;;;;;;;0.00;0.00;;;;;;;10.70;77.56;100310.13;7359812;19;20010;-60
2021/12/11 10:25:30;;;;;;;0.08;0.08;;;;;;;10.83;77.96;100313.22;7363596;19;20010;-59
2021/12/11 10:28:02;;;;;;;0.00;0.00;;;;;;;10.93;77.89;100308.56;7356384;19;20444;-59
2021/12/11 10:30:30;;;;;;;0.10;0.10;;;;;;;10.99;78.13;100317.06;7358566;19;20018;-59
2021/12/11 10:32:55;;;;;;;;;;;;;;;11.15;77.80;100313.09;7363898;19;20010;-59
2021/12/11 10:35:30;;;;;;;0.10;0.10;;;;;;;11.24;78.52;100318.94;7361460;19;19934;-59
2021/12/11 10:37:56;;;;;;;0.10;0.10;;;;;;;11.24;78.40;100308.47;7366887;19;20011;-59
2021/12/11 10:40:28;;;;;;;0.10;0.10;;;;;;;11.39;78.39;100305.38;7360953;19;20074;-59
2021/12/11 10:43:01;;;;;;;0.10;0.10;;;;;;;11.47;78.49;100306.00;7359992;19;20774;-59
2021/12/11 10:45:29;;;;;;;0.00;0.00;;;;;;;11.55;78.72;100298.72;7359922;19;20010;-59
2021/12/11 10:48:00;;;;;;;0.05;0.05;;;;;;;11.62;78.54;100287.19;7364146;19;20056;-60
2021/12/11 10:50:43;;;;;;;0.10;0.10;;;;;;;11.74;78.23;100287.66;7364368;19;20019;-59
2021/12/11 10:53:11;;;;;;;0.00;0.00;;;;;;;11.80;78.45;100282.22;7358761;19;20482;-59
2021/12/11 10:55:39;;;;;;;0.10;0.10;;;;;;;11.78;78.78;100260.50;7353863;19;20038;-60
2021/12/11 10:58:08;;;;;;;;;;;;;;;11.99;78.04;100270.22;7360109;19;20018;-59
2021/12/11 11:00:42;;;;;;;0.10;0.10;;;;;;;12.04;78.10;100259.59;7361991;19;20439;-59
2021/12/11 11:03:08;;;;;;;0.10;0.10;;;;;;;12.08;78.29;100264.69;7359951;19;20022;-59
2021/12/11 11:05:36;;;;;;;0.00;0.00;;;;;;;12.17;78.59;100266.97;7361758;19;20006;-59
2021/12/11 11:08:04;;;;;;;0.00;0.00;;;;;;;12.24;78.24;100271.97;7358904;19;20010;-59
2021/12/11 11:10:34;;;;;;;0.08;0.08;;;;;;;12.31;78.51;100255.97;7361705;19;20038;-59
2021/12/11 11:13:02;;;;;;;0.08;0.08;;;;;;;12.36;78.33;100256.66;7352811;19;20029;-59
2021/12/11 11:15:28;;;;;;;0.00;0.00;;;;;;;12.40;78.11;100252.16;7352056;19;20016;-59
2021/12/11 11:17:54;;;;;;;0.03;0.03;;;;;;;12.46;77.97;100249.31;7351428;19;20022;-59
2021/12/11 11:20:29;;;;;;;0.10;0.10;;;;;;;12.55;78.34;100246.34;7350100;19;20007;-60
2021/12/11 11:22:55;;;;;;;0.10;0.10;;;;;;;12.59;77.94;100258.44;7353877;19;20014;-59
2021/12/11 11:25:26;;;;;;;0.10;0.10;;;;;;;12.64;77.86;100251.25;7357906;19;20013;-59
2021/12/11 11:27:57;;;;;;;0.10;0.10;;;;;;;12.68;78.04;100242.38;7335506;19;20014;-59
2021/12/11 11:30:28;;;;;;;0.00;0.00;;;;;;;12.73;78.22;100250.03;7351326;19;20021;-59
2021/12/11 11:32:55;;;;;;;0.03;0.03;;;;;;;12.76;78.28;100260.38;7362123;19;20741;-60
2021/12/11 11:35:26;;;;;;;0.00;0.00;;;;;;;12.80;78.31;100245.41;7362682;19;20010;-60
2021/12/11 11:37:54;;;;;;;0.10;0.10;;;;;;;12.78;77.95;100248.09;7363248;19;20044;-59
2021/12/11 11:40:25;;;;;;;0.05;0.05;;;;;;;12.92;77.89;100245.75;7362679;19;20518;-59
2021/12/11 11:42:51;;;;;;;0.00;0.00;;;;;;;12.93;78.07;100254.50;7358419;19;20025;-59
2021/12/11 11:45:18;;;;;;;0.00;0.00;;;;;;;12.99;78.17;100251.63;7364937;19;20015;-59
2021/12/11 11:47:45;;;;;;;0.10;0.10;;;;;;;13.03;78.05;100255.84;7364624;19;20046;-59
2021/12/11 11:50:14;;;;;;;0.10;0.10;;;;;;;13.06;77.84;100245.22;7367429;19;20006;-59
2021/12/11 11:52:41;;;;;;;0.10;0.10;;;;;;;13.09;77.97;100237.25;7366466;19;20009;-59
2021/12/11 11:55:14;;;;;;;0.00;0.00;;;;;;;13.14;77.85;100230.06;7360074;19;20661;-59
2021/12/11 11:57:47;;;;;;;0.08;0.08;;;;;;;13.15;77.54;100231.75;7369263;19;20010;-59
2021/12/11 12:00:41;;;;;;;0.10;0.10;;;;;;;13.18;77.38;100242.13;7360719;19;20102;-59
2021/12/11 12:03:08;;;;;;;0.03;0.03;;;;;;;13.15;77.33;100229.13;7262398;19;2004482;-60
2021/12/11 12:05:36;;;;;;;0.10;0.10;;;;;;;13.16;77.44;100228.22;7369104;19;20003;-59
2021/12/11 12:08:05;;;;;;;0.00;0.00;;;;;;;13.19;77.76;100222.84;7366831;19;20106;-57
2021/12/11 12:10:31;;;;;;;0.10;0.10;;;;;;;13.19;77.92;100228.09;7355804;19;20027;-59
2021/12/11 12:12:56;;;;;;;0.00;0.00;;;;;;;13.20;78.03;100224.56;7359679;19;20586;-59